Time;durP1;ratioP1;P1;durP2;ratioP2;P2;SDS_P1;SDS_P2;PMS_P1;PMS_P2;Temp;Humidity;BMP_temperature;BMP_pressure;BME280_temperature;BME280_humidity;BME280_pressure;Samples;Min_cycle;Max_cycle;Signal;HPM_P1;HPM_P2
2021/11/11 00:01:59;;;;;;;19.20;8.30;;;2.70;58.80;;;;;;5057556;28;20409;-38
2021/11/11 00:04:25;;;;;;;15.05;8.02;;;2.70;58.80;;;;;;5058124;28;20032;-38
2021/11/11 00:06:50;;;;;;;13.40;7.63;;;2.70;58.90;;;;;;5057626;28;20310;-38
2021/11/11 00:09:16;;;;;;;14.05;7.15;;;2.60;58.90;;;;;;5057977;28;20043;-38
2021/11/11 00:11:42;;;;;;;12.23;6.55;;;2.70;59.00;;;;;;5057507;28;20048;-37
2021/11/11 00:14:09;;;;;;;16.08;7.88;;;2.60;59.10;;;;;;5057912;28;20313;-38
2021/11/11 00:16:35;;;;;;;13.65;6.88;;;2.60;59.20;;;;;;5057471;28;20041;-38
2021/11/11 00:19:02;;;;;;;13.45;6.90;;;2.60;59.20;;;;;;5057654;28;20077;-38
2021/11/11 00:21:28;;;;;;;10.65;6.53;;;2.60;59.30;;;;;;5057233;28;20041;-38
2021/11/11 00:23:53;;;;;;;13.55;7.57;;;2.60;59.40;;;;;;5057207;28;20037;-37
2021/11/11 00:26:19;;;;;;;12.45;7.03;;;2.60;59.50;;;;;;5057252;28;20041;-37
2021/11/11 00:28:44;;;;;;;14.13;7.00;;;2.50;59.60;;;;;;5057449;28;20305;-37
2021/11/11 00:31:10;;;;;;;12.20;6.70;;;2.50;59.80;;;;;;5057116;28;20073;-38
2021/11/11 00:33:36;;;;;;;11.95;6.60;;;2.50;59.90;;;;;;5057274;28;20114;-37
2021/11/11 00:36:04;;;;;;;11.70;6.35;;;2.40;59.90;;;;;;5057396;28;20041;-37
2021/11/11 00:38:30;;;;;;;11.52;7.00;;;2.40;60.00;;;;;;5057327;28;20348;-37
2021/11/11 00:40:55;;;;;;;12.20;6.80;;;2.40;60.20;;;;;;5057338;28;20052;-37
2021/11/11 00:43:21;;;;;;;15.50;7.00;;;2.40;60.40;;;;;;5056711;28;20061;-37
2021/11/11 00:45:46;;;;;;;14.35;7.38;;;2.30;60.40;;;;;;5056774;28;20048;-37
2021/11/11 00:48:12;;;;;;;11.68;6.78;;;2.30;60.40;;;;;;5055631;28;20056;-37
2021/11/11 00:50:38;;;;;;;9.85;6.05;;;2.30;60.60;;;;;;5057115;28;20037;-37
2021/11/11 00:53:06;;;;;;;15.95;6.32;;;2.30;60.70;;;;;;5056812;28;20325;-37
2021/11/11 00:55:33;;;;;;;14.73;6.97;;;2.20;60.80;;;;;;5056901;28;20036;-37
2021/11/11 00:58:00;;;;;;;13.60;6.78;;;2.20;60.90;;;;;;5056408;28;20048;-37
2021/11/11 01:00:27;;;;;;;12.10;6.60;;;2.20;61.10;;;;;;5056988;28;20134;-38
2021/11/11 01:02:55;;;;;;;16.88;7.43;;;2.10;61.10;;;;;;5056302;28;20025;-37
2021/11/11 01:05:21;;;;;;;13.65;7.90;;;2.10;61.20;;;;;;5057140;28;20039;-37
2021/11/11 01:07:49;;;;;;;20.67;9.00;;;2.10;61.30;;;;;;5056516;28;20033;-37
2021/11/11 01:10:17;;;;;;;19.45;9.95;;;2.10;61.30;;;;;;5056979;28;20453;-38
2021/11/11 01:12:44;;;;;;;21.77;10.20;;;2.10;61.40;;;;;;5056264;28;20029;-38
2021/11/11 01:15:13;;;;;;;23.50;10.60;;;2.10;62.00;;;;;;5057037;28;20447;-38
2021/11/11 01:17:39;;;;;;;22.80;10.70;;;2.10;61.50;;;;;;5056359;28;20058;-38
2021/11/11 01:20:08;;;;;;;21.40;10.65;;;2.10;61.60;;;;;;5056864;28;20072;-38
2021/11/11 01:22:35;;;;;;;21.63;10.77;;;2.00;61.60;;;;;;5055836;28;20116;-38
2021/11/11 01:25:02;;;;;;;21.88;10.57;;;2.10;61.70;;;;;;5056725;28;20036;-38
2021/11/11 01:27:28;;;;;;;21.73;10.13;;;2.10;61.80;;;;;;5056121;28;20302;-38
2021/11/11 01:29:53;;;;;;;21.17;10.93;;;2.00;61.80;;;;;;5056591;28;20040;-38
2021/11/11 01:32:19;;;;;;;26.77;12.27;;;2.00;61.80;;;;;;5055934;28;20044;-39
2021/11/11 01:34:45;;;;;;;26.23;12.73;;;2.00;61.90;;;;;;5056439;28;20358;-38
2021/11/11 01:37:10;;;;;;;24.98;11.88;;;2.00;62.00;;;;;;5056013;28;20091;-37
2021/11/11 01:39:36;;;;;;;23.98;11.93;;;1.90;62.10;;;;;;5056113;28;20374;-37
2021/11/11 01:42:02;;;;;;;20.58;10.43;;;1.90;62.20;;;;;;5055662;28;20181;-38
2021/11/11 01:44:28;;;;;;;26.23;11.90;;;1.90;62.20;;;;;;5056022;28;20113;-38
2021/11/11 01:46:54;;;;;;;19.13;10.30;;;1.90;62.40;;;;;;5055773;28;20595;-37
2021/11/11 01:49:20;;;;;;;17.40;9.73;;;1.90;62.40;;;;;;5056163;28;20075;-37
2021/11/11 01:51:49;;;;;;;20.67;10.85;;;1.90;62.50;;;;;;5055519;28;20061;-37
2021/11/11 01:54:17;;;;;;;17.13;9.57;;;1.80;62.50;;;;;;5056063;28;20048;-37
2021/11/11 01:56:43;;;;;;;28.40;10.20;;;1.80;62.60;;;;;;5054997;28;20409;-37
2021/11/11 01:59:09;;;;;;;22.05;9.25;;;1.80;62.60;;;;;;5056084;28;20025;-37
2021/11/11 02:01:35;;;;;;;17.35;9.50;;;1.80;62.80;;;;;;5055678;28;20449;-37
2021/11/11 02:04:02;;;;;;;17.25;9.38;;;1.80;62.90;;;;;;5055757;28;20032;-38
2021/11/11 02:06:27;;;;;;;13.75;8.40;;;1.70;62.90;;;;;;5055383;28;20060;-37
2021/11/11 02:08:53;;;;;;;16.75;9.05;;;1.70;63.00;;;;;;5055720;28;20029;-37
2021/11/11 02:11:22;;;;;;;15.18;8.82;;;1.70;63.10;;;;;;5055241;28;20040;-37
2021/11/11 02:13:48;;;;;;;16.20;7.43;;;1.70;63.20;;;;;;5055635;28;20025;-38
2021/11/11 02:16:13;;;;;;;15.18;7.75;;;1.70;63.30;;;;;;5055373;28;20044;-38
2021/11/11 02:18:39;;;;;;;14.07;6.72;;;1.70;63.50;;;;;;5055747;28;20020;-38
2021/11/11 02:21:05;;;;;;;13.55;7.05;;;1.60;63.50;;;;;;5055703;28;20036;-38
2021/11/11 02:23:31;;;;;;;13.13;7.10;;;1.60;63.60;;;;;;5055561;28;20025;-38
2021/11/11 02:25:57;;;;;;;18.45;7.47;;;1.60;63.70;;;;;;5055488;28;20045;-38
2021/11/11 02:28:22;;;;;;;13.70;7.03;;;1.60;63.90;;;;;;5055369;28;20025;-38
2021/11/11 02:30:52;;;;;;;13.95;7.53;;;1.50;63.80;;;;;;5055341;28;20033;-38
2021/11/11 02:33:20;;;;;;;14.15;7.90;;;1.50;64.00;;;;;;5055324;28;20080;-38
2021/11/11 02:35:47;;;;;;;15.43;7.65;;;1.60;64.00;;;;;;5055608;28;20033;-37
2021/11/11 02:38:14;;;;;;;18.73;8.15;;;1.50;64.10;;;;;;5055458;28;20350;-37
2021/11/11 02:40:41;;;;;;;11.77;6.68;;;1.50;64.10;;;;;;5055517;28;20359;-37
2021/11/11 02:43:08;;;;;;;16.80;9.25;;;1.50;64.20;;;;;;5054708;28;20049;-37
2021/11/11 02:45:37;;;;;;;18.58;9.00;;;1.50;64.20;;;;;;5055260;28;20029;-38
2021/11/11 02:48:05;;;;;;;18.20;8.05;;;1.50;64.40;;;;;;5054930;28;20032;-38
2021/11/11 02:50:31;;;;;;;13.63;7.28;;;1.50;64.60;;;;;;5055148;28;20041;-36
2021/11/11 02:52:58;;;;;;;14.27;7.93;;;1.50;64.70;;;;;;5055078;28;20421;-39
2021/11/11 02:55:24;;;;;;;15.70;6.82;;;1.50;64.90;;;;;;5055663;28;20032;-39
2021/11/11 02:57:51;;;;;;;11.90;5.47;;;1.50;65.00;;;;;;5055147;28;20033;-39
2021/11/11 03:00:27;;;;;;;13.80;5.65;;;1.50;65.20;;;;;;5055048;28;20035;-39
2021/11/11 03:02:53;;;;;;;11.77;5.80;;;1.50;65.10;;;;;;5055089;28;20480;-39
2021/11/11 03:05:28;;;;;;;13.23;5.57;;;1.50;65.10;;;;;;5055666;28;20025;-38
2021/11/11 03:07:54;;;;;;;11.40;6.00;;;1.50;65.20;;;;;;5054899;28;20329;-38
2021/11/11 03:10:24;;;;;;;10.57;5.95;;;1.60;65.30;;;;;;5059014;28;20061;-38
2021/11/11 03:12:51;;;;;;;11.32;5.53;;;1.60;65.30;;;;;;5058417;28;20487;-36
2021/11/11 03:15:17;;;;;;;12.20;6.13;;;1.60;65.20;;;;;;5059166;28;20106;-37
2021/11/11 03:17:45;;;;;;;11.90;5.57;;;1.60;65.30;;;;;;5058651;28;20425;-37
2021/11/11 03:20:12;;;;;;;10.68;5.88;;;1.60;65.30;;;;;;5059166;28;20029;-37
2021/11/11 03:22:40;;;;;;;12.25;5.88;;;1.60;65.30;;;;;;5058033;28;20083;-38
2021/11/11 03:25:07;;;;;;;10.20;5.85;;;1.60;65.40;;;;;;5058990;28;20056;-38
2021/11/11 03:27:33;;;;;;;9.75;5.20;;;1.60;65.40;;;;;;5058197;28;20037;-38
2021/11/11 03:29:59;;;;;;;11.65;6.22;;;1.60;65.40;;;;;;5058911;28;20351;-37
2021/11/11 03:32:25;;;;;;;11.63;5.93;;;1.60;65.50;;;;;;5058374;28;20116;-37
2021/11/11 03:34:50;;;;;;;10.05;5.68;;;1.60;65.50;;;;;;5058804;28;20370;-37
2021/11/11 03:37:17;;;;;;;12.48;6.03;;;1.60;65.50;;;;;;5058308;28;20036;-38
2021/11/11 03:39:43;;;;;;;13.82;6.60;;;1.60;65.50;;;;;;5058733;28;20024;-38
2021/11/11 03:42:10;;;;;;;14.38;6.55;;;1.60;65.60;;;;;;5058185;28;20338;-38
2021/11/11 03:44:37;;;;;;;14.68;6.22;;;1.50;65.60;;;;;;5057929;28;20112;-38
2021/11/11 03:47:03;;;;;;;13.25;6.07;;;1.50;65.60;;;;;;5058169;28;20322;-39
2021/11/11 03:49:31;;;;;;;12.52;6.95;;;1.50;65.60;;;;;;5058520;28;20083;-39
2021/11/11 03:51:57;;;;;;;16.20;8.48;;;1.50;65.80;;;;;;5057945;28;20037;-39
2021/11/11 03:54:24;;;;;;;13.00;7.00;;;1.50;65.80;;;;;;5058305;28;20025;-39
2021/11/11 03:56:50;;;;;;;20.58;7.90;;;1.50;65.90;;;;;;5057537;28;20029;-38
2021/11/11 03:59:16;;;;;;;13.43;7.05;;;1.50;65.90;;;;;;5058089;28;20032;-38
2021/11/11 04:01:44;;;;;;;13.80;8.18;;;1.40;65.90;;;;;;5057872;28;20033;-39
2021/11/11 04:04:10;;;;;;;15.68;8.10;;;1.40;66.00;;;;;;5058011;28;20112;-39
2021/11/11 04:06:36;;;;;;;16.02;7.85;;;1.40;66.00;;;;;;5057596;28;20110;-39
2021/11/11 04:09:03;;;;;;;14.77;7.93;;;1.40;66.10;;;;;;5057887;28;20064;-38
2021/11/11 04:11:30;;;;;;;13.98;7.88;;;1.30;66.10;;;;;;5057481;28;20045;-39
2021/11/11 04:13:56;;;;;;;14.32;7.82;;;1.30;66.10;;;;;;5057745;28;20115;-37
2021/11/11 04:16:22;;;;;;;13.93;7.28;;;1.30;66.30;;;;;;5057213;28;20041;-38
2021/11/11 04:18:48;;;;;;;12.30;6.68;;;1.30;66.30;;;;;;5057362;28;20347;-37
2021/11/11 04:21:16;;;;;;;9.25;5.80;;;1.30;66.40;;;;;;5056968;28;20033;-38
2021/11/11 04:23:43;;;;;;;11.25;5.60;;;1.20;66.50;;;;;;5056303;28;20036;-38
2021/11/11 04:26:14;;;;;;;10.30;5.50;;;1.20;66.80;;;;;;5057111;28;20043;-42
2021/11/11 04:28:58;;;;;;;8.68;4.80;;;1.10;66.70;;;;;;5057259;28;20040;-37
2021/11/11 04:31:27;;;;;;;9.45;5.35;;;1.10;66.90;;;;;;5056791;28;20062;-37
2021/11/11 04:34:06;;;;;;;11.85;5.32;;;1.10;67.00;;;;;;5057318;28;20150;-37
2021/11/11 04:42:14;;;;;;;6.95;4.65;;;1.00;67.60;;;;;;5056807;28;20072;-38
2021/11/11 05:03:37;;;;;;;10.80;4.25;;;0.90;68.30;;;;;;5056776;28;20117;-39
2021/11/11 05:06:03;;;;;;;9.57;4.10;;;0.90;68.30;;;;;;5056217;28;20044;-39
2021/11/11 05:08:30;;;;;;;8.80;4.47;;;0.90;68.40;;;;;;5056608;28;20096;-38
2021/11/11 05:10:57;;;;;;;13.60;6.10;;;0.90;68.50;;;;;;5056200;28;20144;-39
2021/11/11 05:13:23;;;;;;;18.70;5.75;;;0.80;68.50;;;;;;5056141;28;20019;-38
2021/11/11 05:15:49;;;;;;;10.32;4.50;;;0.90;68.70;;;;;;5056400;28;20025;-38
2021/11/11 05:18:15;;;;;;;7.05;4.05;;;0.80;68.70;;;;;;5056349;28;20032;-38
2021/11/11 05:20:41;;;;;;;9.65;4.10;;;0.80;68.80;;;;;;5056472;28;20029;-38
2021/11/11 05:23:06;;;;;;;12.68;5.30;;;0.90;68.90;;;;;;5055700;28;20017;-38
2021/11/11 05:25:34;;;;;;;12.20;5.15;;;0.90;68.90;;;;;;5056024;28;20029;-38
2021/11/11 05:28:00;;;;;;;13.60;5.65;;;0.90;69.00;;;;;;5056251;28;20017;-38
2021/11/11 05:30:27;;;;;;;12.85;5.65;;;0.90;69.00;;;;;;5055555;28;20025;-38
2021/11/11 05:32:54;;;;;;;11.13;4.80;;;0.90;69.00;;;;;;5054872;28;20444;-39
2021/11/11 05:35:19;;;;;;;8.10;4.35;;;0.90;69.00;;;;;;5056396;28;20070;-37
2021/11/11 05:37:46;;;;;;;31.60;5.32;;;0.90;69.00;;;;;;5054476;28;20392;-39
2021/11/11 05:40:14;;;;;;;14.57;4.00;;;0.90;69.00;;;;;;5056170;28;20427;-38
2021/11/11 05:42:40;;;;;;;21.85;4.65;;;1.00;69.10;;;;;;5054958;28;20053;-39
2021/11/11 05:45:08;;;;;;;24.83;6.00;;;1.00;69.10;;;;;;5056223;28;20236;-39
2021/11/11 05:47:34;;;;;;;17.70;6.45;;;1.00;69.10;;;;;;5055505;28;20068;-39
2021/11/11 05:50:00;;;;;;;21.85;4.82;;;1.00;69.20;;;;;;5054848;28;20053;-39
2021/11/11 05:52:26;;;;;;;11.50;3.97;;;1.10;69.20;;;;;;5055276;28;20381;-39
2021/11/11 05:54:52;;;;;;;6.18;4.00;;;1.10;69.20;;;;;;5055633;28;20057;-39
2021/11/11 05:57:18;;;;;;;13.07;4.13;;;1.10;69.30;;;;;;5055321;28;20025;-39
2021/11/11 05:59:44;;;;;;;13.23;4.43;;;1.10;69.20;;;;;;5055633;28;20075;-39
2021/11/11 06:02:11;;;;;;;11.48;4.05;;;1.20;69.30;;;;;;5055176;28;20036;-39
2021/11/11 06:04:38;;;;;;;11.93;4.32;;;1.20;69.20;;;;;;5055495;28;20035;-37
2021/11/11 06:07:04;;;;;;;14.52;4.18;;;1.30;69.20;;;;;;5055316;28;20044;-38
2021/11/11 06:09:31;;;;;;;24.10;5.07;;;1.30;69.20;;;;;;5055479;28;20398;-37
2021/11/11 06:11:57;;;;;;;6.57;3.58;;;1.40;69.30;;;;;;5054970;28;20094;-38
2021/11/11 06:14:23;;;;;;;10.48;4.53;;;1.50;69.10;;;;;;5055675;28;20350;-37
2021/11/11 06:16:49;;;;;;;16.63;4.85;;;1.50;69.00;;;;;;5055377;28;20033;-37
2021/11/11 06:19:15;;;;;;;15.38;4.70;;;1.60;68.90;;;;;;5055730;28;20024;-38
2021/11/11 06:21:41;;;;;;;13.25;4.82;;;1.70;68.90;;;;;;5055262;28;20114;-38
2021/11/11 06:24:07;;;;;;;14.57;5.47;;;1.70;68.80;;;;;;5055480;28;20029;-38
2021/11/11 06:26:33;;;;;;;11.93;4.03;;;1.80;68.80;;;;;;5055049;28;20028;-38
2021/11/11 06:29:00;;;;;;;14.70;4.20;;;1.90;68.70;;;;;;5055250;28;20037;-39
2021/11/11 06:31:26;;;;;;;8.15;3.75;;;1.90;68.50;;;;;;5054772;28;20060;-39
2021/11/11 06:33:52;;;;;;;10.38;4.20;;;2.00;68.40;;;;;;5055578;28;20064;-39
2021/11/11 06:36:18;;;;;;;10.38;5.22;;;2.10;68.30;;;;;;5054857;28;20468;-39
2021/11/11 06:38:44;;;;;;;18.40;5.50;;;2.10;68.10;;;;;;5055123;28;20053;-39
2021/11/11 06:41:09;;;;;;;21.05;8.18;;;2.20;68.10;;;;;;5054582;28;20087;-40
2021/11/11 06:43:36;;;;;;;8.60;3.67;;;2.20;67.90;;;;;;5057666;28;20469;-39
2021/11/11 06:46:03;;;;;;;9.77;4.10;;;2.30;67.80;;;;;;5059142;28;20332;-38
2021/11/11 06:48:29;;;;;;;8.18;4.50;;;2.30;67.80;;;;;;5058711;28;20112;-37
2021/11/11 06:50:55;;;;;;;9.30;3.72;;;2.40;67.80;;;;;;5059202;28;20041;-38
2021/11/11 06:53:21;;;;;;;32.90;6.97;;;2.40;67.50;;;;;;5058640;28;20283;-39
2021/11/11 06:55:47;;;;;;;23.73;5.10;;;2.50;67.30;;;;;;5058659;28;20037;-38
2021/11/11 06:58:15;;;;;;;15.65;5.13;;;2.60;67.20;;;;;;5058538;28;20021;-38
2021/11/11 07:00:42;;;;;;;14.70;6.40;;;2.60;66.90;;;;;;5058741;28;20033;-38
2021/11/11 07:03:08;;;;;;;6.72;3.70;;;2.70;66.90;;;;;;5058465;28;20044;-39
2021/11/11 07:05:33;;;;;;;15.13;4.15;;;2.80;66.60;;;;;;5058498;28;20419;-38
2021/11/11 07:07:59;;;;;;;14.35;5.18;;;2.80;66.30;;;;;;5058775;28;20036;-40
2021/11/11 07:10:25;;;;;;;6.65;3.25;;;2.80;66.20;;;;;;5055418;28;20044;-40
2021/11/11 07:12:51;;;;;;;5.88;3.72;;;2.90;66.10;;;;;;5058172;28;20037;-37
2021/11/11 07:15:17;;;;;;;21.88;6.97;;;2.90;65.80;;;;;;5058633;28;20116;-38
2021/11/11 07:17:44;;;;;;;16.63;4.78;;;3.00;65.90;;;;;;5057868;28;20098;-38
2021/11/11 07:20:12;;;;;;;10.57;3.78;;;3.10;65.60;;;;;;5058559;28;20029;-38
2021/11/11 07:22:39;;;;;;;10.60;4.22;;;3.10;65.60;;;;;;5057721;28;20033;-39
2021/11/11 07:25:06;;;;;;;12.52;3.88;;;3.20;65.40;;;;;;5058184;28;20047;-38
2021/11/11 07:27:34;;;;;;;5.90;3.80;;;3.20;64.90;;;;;;5057633;28;20033;-39
2021/11/11 07:30:01;;;;;;;11.13;4.22;;;3.30;64.60;;;;;;5058120;28;20037;-38
2021/11/11 07:32:26;;;;;;;13.82;4.22;;;3.30;64.50;;;;;;5057544;28;20440;-38
2021/11/11 07:34:52;;;;;;;13.88;5.05;;;3.40;64.40;;;;;;5057059;28;20032;-38
2021/11/11 07:37:18;;;;;;;29.60;6.22;;;3.40;64.20;;;;;;5057733;28;20033;-38
2021/11/11 07:39:44;;;;;;;14.13;4.63;;;3.50;64.20;;;;;;5057860;28;20037;-39
2021/11/11 07:42:11;;;;;;;17.70;4.85;;;3.50;63.80;;;;;;5057466;28;20433;-38
2021/11/11 07:44:37;;;;;;;11.85;4.93;;;3.60;63.90;;;;;;5057762;28;20044;-39
2021/11/11 07:47:03;;;;;;;8.02;4.75;;;3.70;64.00;;;;;;5057268;28;20108;-38
2021/11/11 07:49:28;;;;;;;13.15;5.50;;;3.70;63.60;;;;;;5058041;28;20271;-39
2021/11/11 07:51:55;;;;;;;11.30;5.25;;;3.80;63.30;;;;;;5057239;28;20119;-38
2021/11/11 07:54:20;;;;;;;12.77;6.25;;;3.90;63.20;;;;;;5056832;28;20036;-40
2021/11/11 07:56:46;;;;;;;9.35;5.43;;;4.00;62.70;;;;;;5057020;28;20184;-39
2021/11/11 07:59:14;;;;;;;29.65;6.93;;;4.10;62.40;;;;;;5057709;28;20037;-39
2021/11/11 08:01:40;;;;;;;9.95;4.75;;;4.20;62.30;;;;;;5057127;28;20393;-40
2021/11/11 08:04:05;;;;;;;19.23;5.00;;;4.20;61.80;;;;;;5057353;28;20098;-40
2021/11/11 08:06:31;;;;;;;12.30;5.10;;;4.30;61.70;;;;;;5056620;28;20119;-39
2021/11/11 08:08:57;;;;;;;16.40;5.78;;;4.40;61.60;;;;;;5057301;28;20321;-39
2021/11/11 08:11:23;;;;;;;10.63;4.90;;;4.40;61.30;;;;;;5056829;28;20037;-39
2021/11/11 08:13:50;;;;;;;11.45;5.30;;;4.50;60.90;;;;;;5057147;28;20078;-39
2021/11/11 08:16:16;;;;;;;8.70;4.78;;;4.60;61.00;;;;;;5056713;28;20029;-39
2021/11/11 08:18:42;;;;;;;17.05;5.43;;;4.70;60.50;;;;;;5057070;28;20021;-39
2021/11/11 08:21:08;;;;;;;10.70;5.30;;;4.70;59.90;;;;;;5056325;28;20132;-39
2021/11/11 08:23:35;;;;;;;9.65;4.80;;;4.80;59.90;;;;;;5056871;28;20029;-37
2021/11/11 08:26:04;;;;;;;8.27;4.90;;;4.90;59.70;;;;;;5056540;28;20029;-38
2021/11/11 08:28:31;;;;;;;14.60;6.43;;;4.90;59.50;;;;;;5056815;28;20317;-38
2021/11/11 08:30:57;;;;;;;8.65;5.28;;;5.00;59.60;;;;;;5056640;28;20048;-40
2021/11/11 08:33:23;;;;;;;11.13;4.97;;;5.10;59.70;;;;;;5056569;28;20017;-40
2021/11/11 08:35:49;;;;;;;13.43;4.70;;;5.20;59.40;;;;;;5056676;28;20417;-39
2021/11/11 08:38:16;;;;;;;7.63;4.43;;;5.30;59.30;;;;;;5056064;28;20429;-37
2021/11/11 08:40:41;;;;;;;9.07;4.13;;;5.40;59.40;;;;;;5045190;28;20033;-39
2021/11/11 08:43:07;;;;;;;18.52;5.05;;;5.50;59.10;;;;;;5038303;28;20097;-39
2021/11/11 08:45:34;;;;;;;9.13;4.63;;;5.50;58.90;;;;;;5045486;28;20303;-39
2021/11/11 08:48:01;;;;;;;10.10;4.57;;;5.60;59.20;;;;;;5047667;28;20013;-39
2021/11/11 08:50:31;;;;;;;9.82;4.13;;;5.70;58.70;;;;;;5051687;28;20044;-38
2021/11/11 08:53:02;;;;;;;18.88;5.93;;;5.80;58.60;;;;;;5041587;28;20295;-39
2021/11/11 08:55:30;;;;;;;;;;;5.90;58.30;;;;;;5039678;28;20030;-38
2021/11/11 08:57:58;;;;;;;10.45;4.60;;;5.90;58.50;;;;;;5056643;28;20411;-39
2021/11/11 09:00:26;;;;;;;24.50;6.25;;;6.00;58.30;;;;;;5056805;28;20082;-40
2021/11/11 09:02:54;;;;;;;10.13;4.97;;;6.10;58.30;;;;;;5056131;28;20040;-39
2021/11/11 09:05:21;;;;;;;29.88;6.80;;;6.10;58.00;;;;;;5053130;28;20398;-38
2021/11/11 09:07:48;;;;;;;14.68;4.85;;;6.20;57.70;;;;;;5040570;28;20040;-38
2021/11/11 09:10:18;;;;;;;16.67;4.28;;;6.20;57.60;;;;;;5045135;28;20405;-38
2021/11/11 09:12:45;;;;;;;9.35;4.07;;;6.30;57.70;;;;;;5035929;28;20038;-38
2021/11/11 09:15:14;;;;;;;13.55;5.55;;;6.30;57.50;;;;;;5036668;28;20381;-39
2021/11/11 09:17:40;;;;;;;11.32;5.28;;;6.40;57.80;;;;;;5036411;28;20034;-38
2021/11/11 09:20:08;;;;;;;12.65;5.25;;;6.40;57.80;;;;;;5036187;28;20410;-38
2021/11/11 09:22:35;;;;;;;10.52;5.63;;;6.50;57.90;;;;;;5051772;28;20055;-38
2021/11/11 09:25:03;;;;;;;11.77;5.40;;;6.60;57.80;;;;;;5047124;28;20025;-39
2021/11/11 09:27:29;;;;;;;9.10;4.68;;;6.60;58.00;;;;;;5036040;28;20026;-38
2021/11/11 09:29:55;;;;;;;10.70;4.75;;;6.70;57.80;;;;;;5040686;28;20074;-38
2021/11/11 09:32:21;;;;;;;7.60;3.85;;;6.80;57.70;;;;;;5046400;28;20060;-38
2021/11/11 09:34:47;;;;;;;6.90;4.03;;;6.90;57.50;;;;;;5052639;28;20030;-39
2021/11/11 09:37:13;;;;;;;22.15;5.25;;;7.00;57.80;;;;;;5035765;28;20030;-39
2021/11/11 09:39:38;;;;;;;9.20;4.45;;;7.10;58.00;;;;;;5071753;28;20029;-39
2021/11/11 09:42:05;;;;;;;12.60;5.05;;;7.10;57.70;;;;;;5075357;28;20159;-39
2021/11/11 09:44:31;;;;;;;12.85;5.60;;;7.30;57.60;;;;;;5074688;28;20032;-39
2021/11/11 09:46:57;;;;;;;29.10;5.28;;;7.30;56.70;;;;;;5075712;28;20294;-38
2021/11/11 09:49:23;;;;;;;9.50;3.97;;;7.40;56.60;;;;;;5075534;28;20035;-39
2021/11/11 09:51:50;;;;;;;9.98;3.50;;;7.40;56.10;;;;;;5065675;28;20059;-40
2021/11/11 09:58:34;;;;;;;13.68;5.30;;;7.50;56.40;;;;;;5046412;28;20021;-39
2021/11/11 09:59:49;;;;;;;9.80;3.85;;;7.60;56.40;;;;;;5036131;28;20113;-39
2021/11/11 10:02:16;;;;;;;23.13;6.10;;;7.70;56.00;;;;;;5035530;28;20381;-39
2021/11/11 10:04:42;;;;;;;10.75;4.30;;;7.80;55.50;;;;;;5035558;28;20425;-38
2021/11/11 10:07:07;;;;;;;21.33;4.50;;;7.80;55.20;;;;;;5035246;28;20283;-39
2021/11/11 10:09:44;;;;;;;7.47;3.55;;;7.90;55.50;;;;;;5045418;28;20469;-38
2021/11/11 10:12:17;;;;;;;13.27;3.90;;;7.90;55.20;;;;;;5035376;28;20033;-39
2021/11/11 10:14:46;;;;;;;12.43;4.30;;;8.00;54.90;;;;;;5037535;28;20029;-39
2021/11/11 10:17:13;;;;;;;15.60;5.40;;;8.00;54.70;;;;;;5036350;28;20032;-39
2021/11/11 10:19:42;;;;;;;9.70;4.60;;;8.00;54.80;;;;;;5041848;28;20026;-38
2021/11/11 10:22:22;;;;;;;21.30;6.07;;;8.10;55.10;;;;;;5041434;28;20026;-39
2021/11/11 10:24:55;;;;;;;12.77;3.65;;;8.20;55.10;;;;;;5041829;28;20036;-38
2021/11/11 10:30:15;;;;;;;9.13;3.72;;;8.30;54.40;;;;;;5041963;28;20033;-38
2021/11/11 10:32:51;;;;;;;12.07;4.03;;;8.30;54.20;;;;;;5041295;28;20059;-38
2021/11/11 10:35:22;;;;;;;13.75;3.97;;;8.30;54.00;;;;;;5041836;28;20029;-39
2021/11/11 10:37:57;;;;;;;12.93;5.55;;;8.40;53.90;;;;;;5041168;28;20418;-39
2021/11/11 10:40:31;;;;;;;12.80;6.53;;;8.40;53.80;;;;;;5041833;28;20390;-39
2021/11/11 10:42:59;;;;;;;21.80;5.68;;;8.40;53.60;;;;;;5040913;28;20072;-38
2021/11/11 10:45:31;;;;;;;13.90;5.60;;;8.50;53.90;;;;;;5041274;28;20045;-39
2021/11/11 10:48:03;;;;;;;24.20;6.78;;;8.50;54.10;;;;;;5041142;28;20097;-38
2021/11/11 10:50:36;;;;;;;10.50;3.40;;;8.60;54.00;;;;;;5041413;28;20121;-38
2021/11/11 10:53:07;;;;;;;18.90;6.80;;;8.70;53.80;;;;;;5041121;28;20033;-38
2021/11/11 10:55:37;;;;;;;11.95;3.58;;;8.70;53.60;;;;;;5041370;28;20025;-38
2021/11/11 10:58:08;;;;;;;9.02;4.22;;;8.80;53.10;;;;;;5041421;28;20021;-39
2021/11/11 11:00:37;;;;;;;11.65;5.00;;;8.80;53.50;;;;;;5041498;28;20037;-38
2021/11/11 11:03:10;;;;;;;10.65;6.38;;;8.80;52.90;;;;;;5041666;28;20119;-40
2021/11/11 11:05:57;;;;;;;14.63;4.22;;;8.80;52.90;;;;;;5041214;28;20037;-39
2021/11/11 11:08:28;;;;;;;11.32;4.47;;;8.90;53.00;;;;;;5041875;28;20025;-39
2021/11/11 11:11:04;;;;;;;12.02;4.20;;;8.90;53.30;;;;;;5041394;28;20044;-41
2021/11/11 11:13:34;;;;;;;9.88;4.85;;;8.90;53.30;;;;;;5041403;28;20033;-39
2021/11/11 11:16:02;;;;;;;31.23;7.20;;;9.10;53.20;;;;;;5041305;28;20357;-39
2021/11/11 11:18:34;;;;;;;21.00;7.68;;;9.10;52.60;;;;;;5040326;28;20030;-39
2021/11/11 11:21:06;;;;;;;11.00;5.40;;;9.20;52.80;;;;;;5041401;28;20099;-40
2021/11/11 11:23:46;;;;;;;28.05;6.38;;;9.30;52.60;;;;;;5041632;28;20026;-39
2021/11/11 11:26:16;;;;;;;18.60;4.97;;;9.30;52.40;;;;;;5041259;28;20044;-39
2021/11/11 11:29:01;;;;;;;21.25;7.07;;;9.30;51.70;;;;;;5039896;28;20053;-39
2021/11/11 11:31:43;;;;;;;9.30;4.30;;;9.30;51.60;;;;;;5038080;28;20045;-38
2021/11/11 11:34:30;;;;;;;11.23;5.18;;;9.40;51.50;;;;;;5038388;28;20030;-38
2021/11/11 11:36:58;;;;;;;15.88;5.18;;;9.40;51.50;;;;;;5049013;28;20107;-39
2021/11/11 11:39:33;;;;;;;21.33;5.38;;;9.40;50.90;;;;;;5058329;28;20083;-39
2021/11/11 11:42:08;;;;;;;13.07;4.65;;;9.40;50.80;;;;;;5057233;28;20053;-39
2021/11/11 11:44:44;;;;;;;16.00;6.80;;;9.40;50.60;;;;;;5058173;28;20029;-39
2021/11/11 11:47:14;;;;;;;8.02;4.43;;;9.40;51.00;;;;;;5057774;28;20090;-39
2021/11/11 11:49:42;;;;;;;8.23;3.90;;;9.40;51.00;;;;;;5057980;28;20040;-39
2021/11/11 11:52:10;;;;;;;12.02;4.15;;;9.40;51.00;;;;;;5057548;28;20136;-38
2021/11/11 11:57:09;;;;;;;14.15;5.55;;;9.40;50.70;;;;;;5057476;28;20484;-39
2021/11/11 11:59:37;;;;;;;17.67;4.55;;;9.40;50.60;;;;;;5057612;28;20409;-39
2021/11/11 12:04:45;;;;;;;9.95;5.47;;;9.40;50.80;;;;;;5057734;28;20350;-39
2021/11/11 12:15:10;;;;;;;13.10;3.60;;;9.60;50.40;;;;;;5057725;28;20025;-39
2021/11/11 12:40:03;;;;;;;11.57;4.35;;;9.50;51.00;;;;;;5037109;28;20083;-38
2021/11/11 12:42:32;;;;;;;11.60;4.82;;;9.40;51.20;;;;;;5035927;28;20053;-39
2021/11/11 12:45:12;;;;;;;13.07;5.57;;;9.30;51.30;;;;;;5036956;28;20034;-39
2021/11/11 12:47:45;;;;;;;8.90;4.55;;;9.30;51.60;;;;;;5036059;28;20025;-39
2021/11/11 12:50:35;;;;;;;28.60;6.40;;;9.20;51.80;;;;;;5036852;28;20303;-39
2021/11/11 12:53:13;;;;;;;13.90;4.30;;;9.20;52.10;;;;;;5035910;28;20327;-39
2021/11/11 12:55:59;;;;;;;15.15;5.25;;;9.10;52.20;;;;;;5035152;28;20041;-38
2021/11/11 12:58:43;;;;;;;14.38;5.07;;;9.10;52.50;;;;;;5036311;28;20471;-38
2021/11/11 13:01:16;;;;;;;9.75;4.45;;;9.00;52.50;;;;;;5036177;28;20033;-39
2021/11/11 13:03:53;;;;;;;10.80;4.80;;;9.00;52.70;;;;;;5035999;28;20330;-39
2021/11/11 13:06:32;;;;;;;15.32;6.10;;;8.90;52.90;;;;;;5035918;28;20050;-39
2021/11/11 13:09:09;;;;;;;24.77;9.55;;;8.80;53.30;;;;;;5036578;28;20053;-38
2021/11/11 13:11:41;;;;;;;17.88;7.07;;;8.80;53.50;;;;;;5035640;28;20125;-38
2021/11/11 13:14:20;;;;;;;10.23;6.35;;;8.80;53.80;;;;;;5036173;28;20029;-39
2021/11/11 13:17:11;;;;;;;14.18;5.72;;;8.70;54.00;;;;;;5036018;28;20065;-38
2021/11/11 13:19:37;;;;;;;;;;;8.70;54.30;;;;;;5035964;28;20087;-38
2021/11/11 13:22:22;;;;;;;13.90;6.20;;;8.70;54.60;;;;;;5035889;28;20245;-38
2021/11/11 13:59:31;;;;;;;10.82;6.43;;;8.30;56.70;;;;;;5035705;28;20036;-37
2021/11/11 15:44:54;;;;;;;15.35;8.65;;;7.50;61.80;;;;;;5038356;28;20036;-39
2021/11/11 16:01:24;;;;;;;26.73;11.82;;;7.30;62.20;;;;;;5037522;28;20037;-39
2021/11/11 16:04:07;;;;;;;21.75;9.70;;;7.30;62.40;;;;;;5037615;28;20459;-39
2021/11/11 16:28:03;;;;;;;18.92;8.25;;;7.00;63.70;;;;;;5037406;28;20029;-40
2021/11/11 16:30:31;;;;;;;12.88;6.75;;;6.90;63.80;;;;;;5037345;28;20444;-39
2021/11/11 16:32:56;;;;;;;14.18;7.20;;;6.90;64.00;;;;;;5036932;28;20033;-41
2021/11/11 16:35:23;;;;;;;16.85;6.75;;;6.90;64.10;;;;;;5037322;28;20101;-40
2021/11/11 16:37:50;;;;;;;17.65;6.85;;;6.80;64.20;;;;;;5036785;28;20036;-40
2021/11/11 16:40:20;;;;;;;13.30;7.55;;;6.80;64.30;;;;;;5037598;28;20303;-40
2021/11/11 16:42:47;;;;;;;17.10;7.78;;;6.80;64.50;;;;;;5036641;28;20053;-39
2021/11/11 16:45:15;;;;;;;15.23;7.55;;;6.70;64.50;;;;;;5037454;28;20113;-39
2021/11/11 16:47:41;;;;;;;14.90;8.00;;;6.70;64.60;;;;;;5036791;28;20032;-39
2021/11/11 16:50:07;;;;;;;16.23;8.43;;;6.70;64.50;;;;;;5037321;28;20112;-40
2021/11/11 16:52:34;;;;;;;15.35;7.28;;;6.70;64.60;;;;;;5036511;28;20395;-38